Time;durP1;ratioP1;P1;durP2;ratioP2;P2;SDS_P1;SDS_P2;PMS_P1;PMS_P2;Temp;Humidity;BMP_temperature;BMP_pressure;BME280_temperature;BME280_humidity;BME280_pressure;Samples;Min_cycle;Max_cycle;Signal;HPM_P1;HPM_P2
2024/01/21 00:02:27;;;;;;;60.90;23.88;;;;;;;;;;5030668;28;20078;-61
2024/01/21 00:04:53;;;;;;;55.80;24.27;;;;;;;;;;5035468;22;20050;-60
2024/01/21 00:07:19;;;;;;;53.25;23.65;;;;;;;;;;5007887;28;20030;-60
2024/01/21 00:09:45;;;;;;;49.30;21.83;;;;;;;;;;5010179;28;20053;-61
2024/01/21 00:12:11;;;;;;;53.13;21.65;;;;;;;;;;5012694;28;20065;-60
2024/01/21 00:14:37;;;;;;;54.00;22.65;;;;;;;;;;5013590;28;20052;-60
2024/01/21 00:17:05;;;;;;;51.67;22.00;;;;;;;;;;5014474;28;20409;-61
2024/01/21 00:19:31;;;;;;;41.20;17.75;;;;;;;;;;5013286;28;20046;-60
2024/01/21 00:21:57;;;;;;;45.80;18.48;;;;;;;;;;5013849;28;20033;-61
2024/01/21 00:24:24;;;;;;;40.47;18.15;;;;;;;;;;5008404;28;20045;-61
2024/01/21 00:26:50;;;;;;;47.83;20.10;;;;;;;;;;5011082;28;20073;-60
2024/01/21 00:29:16;;;;;;;53.55;21.10;;;;;;;;;;5012679;28;20037;-60
2024/01/21 00:31:42;;;;;;;54.55;22.48;;;;;;;;;;5012301;28;20057;-60
2024/01/21 00:34:08;;;;;;;51.53;21.20;;;;;;;;;;5015969;28;20053;-60
2024/01/21 00:36:35;;;;;;;49.22;20.65;;;;;;;;;;5019009;28;20029;-60
2024/01/21 00:39:01;;;;;;;45.95;19.35;;;;;;;;;;5011369;28;20045;-60
2024/01/21 00:41:28;;;;;;;43.63;18.73;;;;;;;;;;5004290;28;20037;-61
2024/01/21 00:43:54;;;;;;;42.17;19.20;;;;;;;;;;5008183;28;20049;-60
2024/01/21 00:46:20;;;;;;;43.00;19.98;;;;;;;;;;5008439;28;20045;-61
2024/01/21 00:48:46;;;;;;;44.35;19.05;;;;;;;;;;5004714;28;20038;-61
2024/01/21 00:51:12;;;;;;;53.33;19.95;;;;;;;;;;5009698;28;20050;-61
2024/01/21 00:53:38;;;;;;;48.47;19.95;;;;;;;;;;5009683;28;20034;-61
2024/01/21 00:56:05;;;;;;;44.97;19.40;;;;;;;;;;5010107;28;20594;-61
2024/01/21 00:58:31;;;;;;;40.80;18.27;;;;;;;;;;5009452;28;20422;-60
2024/01/21 01:00:57;;;;;;;45.85;18.52;;;;;;;;;;5009138;28;20050;-60
2024/01/21 01:03:24;;;;;;;48.25;19.42;;;;;;;;;;5010261;28;20524;-62
2024/01/21 01:05:50;;;;;;;43.97;17.90;;;;;;;;;;5010138;28;20034;-60
2024/01/21 01:08:17;;;;;;;44.45;18.27;;;;;;;;;;5009926;28;20050;-60
2024/01/21 01:10:44;;;;;;;40.15;17.80;;;;;;;;;;5011359;28;20060;-60
2024/01/21 01:13:10;;;;;;;53.20;21.38;;;;;;;;;;5012160;28;20064;-60
2024/01/21 01:15:37;;;;;;;45.33;20.05;;;;;;;;;;5009102;28;20029;-60
2024/01/21 01:18:03;;;;;;;47.78;20.50;;;;;;;;;;5011206;28;20053;-60
2024/01/21 01:20:29;;;;;;;47.72;20.02;;;;;;;;;;5009762;28;20057;-60
2024/01/21 01:22:56;;;;;;;45.75;20.50;;;;;;;;;;5012685;28;20040;-60
2024/01/21 01:25:22;;;;;;;39.97;19.42;;;;;;;;;;5013843;28;20057;-60
2024/01/21 01:27:48;;;;;;;41.35;19.40;;;;;;;;;;5013503;28;20041;-60
2024/01/21 01:30:15;;;;;;;40.97;18.50;;;;;;;;;;5009007;28;20058;-60
2024/01/21 01:32:41;;;;;;;42.92;20.77;;;;;;;;;;5009417;28;20045;-60
2024/01/21 01:35:08;;;;;;;48.25;20.10;;;;;;;;;;5009136;28;20417;-60
2024/01/21 01:37:34;;;;;;;47.00;20.15;;;;;;;;;;5009492;28;20056;-60
2024/01/21 01:40:01;;;;;;;41.97;19.58;;;;;;;;;;5013877;28;20037;-60
2024/01/21 01:42:27;;;;;;;35.70;16.58;;;;;;;;;;5009515;28;20056;-60
2024/01/21 01:44:53;;;;;;;37.83;16.23;;;;;;;;;;5009034;28;20050;-60
2024/01/21 01:47:19;;;;;;;38.47;16.45;;;;;;;;;;5016377;28;20042;-60
2024/01/21 01:49:45;;;;;;;35.45;16.00;;;;;;;;;;5008348;28;20502;-60
2024/01/21 01:52:15;;;;;;;37.55;16.17;;;;;;;;;;5008961;28;20061;-60
2024/01/21 01:54:43;;;;;;;35.80;16.65;;;;;;;;;;5009108;28;20041;-60
2024/01/21 01:57:09;;;;;;;38.28;16.42;;;;;;;;;;5007636;28;20046;-60
2024/01/21 01:59:37;;;;;;;34.75;14.73;;;;;;;;;;5002806;28;20061;-60
2024/01/21 02:02:05;;;;;;;29.52;10.95;;;;;;;;;;5010171;28;20070;-60
2024/01/21 02:04:32;;;;;;;23.20;10.35;;;;;;;;;;5015324;28;20041;-61
2024/01/21 02:06:59;;;;;;;20.27;9.35;;;;;;;;;;5009318;28;20390;-60
2024/01/21 02:09:25;;;;;;;21.77;8.77;;;;;;;;;;5010661;28;20057;-60
2024/01/21 02:11:52;;;;;;;21.48;9.50;;;;;;;;;;5011041;28;20053;-60
2024/01/21 02:14:18;;;;;;;18.88;9.63;;;;;;;;;;5011020;28;20034;-60
2024/01/21 02:16:44;;;;;;;17.75;9.07;;;;;;;;;;5016268;28;20050;-59
2024/01/21 02:19:32;;;;;;;24.48;9.68;;;;;;;;;;5014916;28;20060;-60
2024/01/21 02:21:58;;;;;;;21.75;8.25;;;;;;;;;;5013815;28;20038;-59
2024/01/21 02:24:31;;;;;;;19.50;9.43;;;;;;;;;;5013371;28;20046;-59
2024/01/21 02:26:58;;;;;;;22.95;9.32;;;;;;;;;;5013903;28;20046;-58
2024/01/21 02:29:24;;;;;;;16.63;8.23;;;;;;;;;;5013815;28;20046;-59
2024/01/21 02:31:52;;;;;;;18.83;8.05;;;;;;;;;;5013711;28;20061;-59
2024/01/21 02:34:18;;;;;;;13.00;6.53;;;;;;;;;;5013927;28;20072;-60
2024/01/21 02:36:44;;;;;;;16.48;7.13;;;;;;;;;;5019513;28;20053;-59
2024/01/21 02:39:10;;;;;;;13.65;6.68;;;;;;;;;;5018509;28;20401;-59
2024/01/21 02:41:36;;;;;;;20.40;7.78;;;;;;;;;;5014128;28;20034;-60
2024/01/21 02:44:02;;;;;;;16.55;7.47;;;;;;;;;;5020196;28;20453;-60
2024/01/21 02:46:28;;;;;;;15.55;7.88;;;;;;;;;;5016931;28;20049;-60
2024/01/21 02:48:54;;;;;;;16.08;7.72;;;;;;;;;;5016890;28;20413;-59
2024/01/21 02:51:21;;;;;;;15.93;7.13;;;;;;;;;;5013667;28;20057;-60
2024/01/21 02:53:47;;;;;;;17.80;7.32;;;;;;;;;;5013546;28;20416;-60
2024/01/21 02:56:23;;;;;;;11.35;6.22;;;;;;;;;;5014043;28;20049;-60
2024/01/21 02:58:53;;;;;;;10.68;4.93;;;;;;;;;;5013399;28;20045;-60
2024/01/21 03:01:20;;;;;;;12.65;5.22;;;;;;;;;;5013834;28;20049;-59
2024/01/21 03:03:46;;;;;;;11.75;5.70;;;;;;;;;;5013243;28;20046;-59
2024/01/21 03:06:12;;;;;;;11.68;5.20;;;;;;;;;;5013904;28;20053;-59
2024/01/21 03:08:38;;;;;;;25.02;10.48;;;;;;;;;;5014579;28;20046;-60
2024/01/21 03:11:05;;;;;;;23.20;9.52;;;;;;;;;;5013332;28;20061;-60
2024/01/21 03:13:31;;;;;;;18.73;9.40;;;;;;;;;;5011016;28;20030;-59
2024/01/21 03:15:57;;;;;;;22.40;9.23;;;;;;;;;;5016905;28;20057;-60
2024/01/21 03:18:23;;;;;;;15.95;7.38;;;;;;;;;;5013679;28;20057;-60
2024/01/21 03:20:49;;;;;;;13.32;6.88;;;;;;;;;;5015568;28;20034;-59
2024/01/21 03:23:15;;;;;;;12.55;5.80;;;;;;;;;;5014470;28;20053;-60
2024/01/21 03:25:41;;;;;;;10.77;5.30;;;;;;;;;;5017169;28;20041;-59
2024/01/21 03:28:09;;;;;;;8.43;4.55;;;;;;;;;;5013074;28;20042;-60
2024/01/21 03:30:35;;;;;;;9.25;4.10;;;;;;;;;;5012278;28;20038;-60
2024/01/21 03:33:01;;;;;;;7.30;3.95;;;;;;;;;;5012927;28;20057;-59
2024/01/21 03:35:27;;;;;;;12.82;5.32;;;;;;;;;;5013552;28;20046;-59
2024/01/21 03:37:53;;;;;;;14.85;7.22;;;;;;;;;;5017050;28;20053;-60
2024/01/21 03:40:19;;;;;;;23.92;9.90;;;;;;;;;;5019025;28;20386;-59
2024/01/21 03:42:47;;;;;;;22.63;10.13;;;;;;;;;;5013893;28;20042;-59
2024/01/21 03:45:13;;;;;;;27.50;11.15;;;;;;;;;;5012835;28;20050;-60
2024/01/21 03:47:39;;;;;;;23.20;10.82;;;;;;;;;;5013410;28;20025;-60
2024/01/21 03:50:06;;;;;;;25.30;11.23;;;;;;;;;;5011737;28;20047;-60
2024/01/21 03:52:32;;;;;;;24.90;10.73;;;;;;;;;;5012458;28;20413;-59
2024/01/21 03:54:58;;;;;;;31.58;12.57;;;;;;;;;;5011814;28;20042;-59
2024/01/21 03:57:24;;;;;;;27.10;11.80;;;;;;;;;;5012987;28;20042;-59
2024/01/21 03:59:50;;;;;;;31.77;11.32;;;;;;;;;;5012509;28;20040;-60
2024/01/21 04:02:16;;;;;;;26.50;11.43;;;;;;;;;;5013728;28;20137;-60
2024/01/21 04:04:44;;;;;;;23.58;10.10;;;;;;;;;;5012396;28;20068;-59
2024/01/21 04:07:10;;;;;;;20.58;9.35;;;;;;;;;;5014655;28;20052;-59
2024/01/21 04:09:36;;;;;;;15.25;7.47;;;;;;;;;;5011598;28;20046;-60
2024/01/21 04:12:03;;;;;;;14.68;7.10;;;;;;;;;;5014706;28;20054;-59
2024/01/21 04:14:29;;;;;;;12.30;6.88;;;;;;;;;;5012162;28;20060;-59
2024/01/21 04:16:55;;;;;;;14.35;7.30;;;;;;;;;;5015330;28;20489;-60
2024/01/21 04:19:21;;;;;;;18.00;7.00;;;;;;;;;;5015125;28;20049;-60
2024/01/21 04:21:47;;;;;;;11.20;6.80;;;;;;;;;;5013717;28;20041;-59
2024/01/21 04:24:13;;;;;;;15.55;7.10;;;;;;;;;;5008432;28;20068;-58
2024/01/21 04:26:39;;;;;;;14.13;7.57;;;;;;;;;;5021598;28;20042;-63
2024/01/21 04:29:05;;;;;;;13.38;6.60;;;;;;;;;;5012392;28;20055;-59
2024/01/21 04:31:31;;;;;;;13.75;7.18;;;;;;;;;;5016842;28;20494;-58
2024/01/21 04:33:57;;;;;;;15.35;7.43;;;;;;;;;;5016173;28;20057;-60
2024/01/21 04:36:23;;;;;;;13.20;7.18;;;;;;;;;;5016017;28;20050;-60
2024/01/21 04:38:49;;;;;;;16.67;7.68;;;;;;;;;;5012548;28;20482;-59
2024/01/21 04:41:16;;;;;;;13.95;7.70;;;;;;;;;;5011211;28;20501;-60
2024/01/21 04:43:42;;;;;;;14.90;7.60;;;;;;;;;;5019441;28;20045;-60
2024/01/21 04:46:08;;;;;;;17.90;8.30;;;;;;;;;;5016957;28;20420;-60
2024/01/21 04:48:34;;;;;;;15.18;7.43;;;;;;;;;;5013008;28;20049;-59
2024/01/21 04:51:00;;;;;;;15.13;8.52;;;;;;;;;;5020620;28;20041;-60
2024/01/21 04:53:26;;;;;;;15.40;8.50;;;;;;;;;;5010683;28;20052;-61
2024/01/21 04:55:52;;;;;;;16.35;8.35;;;;;;;;;;5007233;28;20030;-60
2024/01/21 04:58:18;;;;;;;20.02;9.27;;;;;;;;;;5011266;28;20053;-60
2024/01/21 05:00:45;;;;;;;16.48;9.20;;;;;;;;;;5009251;28;20045;-63
2024/01/21 05:03:11;;;;;;;14.95;8.23;;;;;;;;;;5013308;28;20052;-60
2024/01/21 05:05:37;;;;;;;17.63;8.80;;;;;;;;;;5014925;28;20036;-59
2024/01/21 05:08:03;;;;;;;18.05;8.70;;;;;;;;;;5012649;28;20025;-61
2024/01/21 05:10:29;;;;;;;20.95;9.65;;;;;;;;;;5013455;28;20042;-60
2024/01/21 05:12:55;;;;;;;16.50;9.13;;;;;;;;;;5010367;28;20056;-60
2024/01/21 05:15:21;;;;;;;17.73;8.75;;;;;;;;;;5013594;28;20042;-59
2024/01/21 05:17:48;;;;;;;22.58;9.93;;;;;;;;;;5014811;28;20041;-60
2024/01/21 05:20:14;;;;;;;17.88;9.10;;;;;;;;;;5014163;28;20421;-60
2024/01/21 05:22:40;;;;;;;14.57;7.93;;;;;;;;;;5009955;28;20030;-60
2024/01/21 05:25:06;;;;;;;15.55;8.13;;;;;;;;;;5015326;28;20053;-59
2024/01/21 05:27:32;;;;;;;19.58;8.43;;;;;;;;;;5015322;28;20034;-60
2024/01/21 05:29:58;;;;;;;13.00;7.22;;;;;;;;;;5015338;28;20508;-60
2024/01/21 05:32:25;;;;;;;14.63;7.70;;;;;;;;;;5011367;28;20034;-60
2024/01/21 05:34:51;;;;;;;16.52;8.15;;;;;;;;;;5017106;28;20041;-60
2024/01/21 05:37:17;;;;;;;15.10;7.90;;;;;;;;;;5010454;28;20046;-60
2024/01/21 05:39:43;;;;;;;15.90;8.25;;;;;;;;;;5012900;28;20033;-60
2024/01/21 05:42:09;;;;;;;18.95;8.77;;;;;;;;;;5019399;28;20041;-60
2024/01/21 05:44:35;;;;;;;14.27;8.25;;;;;;;;;;5018444;28;20033;-60
2024/01/21 05:47:02;;;;;;;15.70;9.02;;;;;;;;;;5010713;28;20393;-60
2024/01/21 05:49:28;;;;;;;18.67;9.57;;;;;;;;;;5002403;28;20046;-59
2024/01/21 05:51:54;;;;;;;16.98;9.43;;;;;;;;;;5012076;28;20539;-59
2024/01/21 05:54:20;;;;;;;18.77;10.27;;;;;;;;;;5010182;28;20045;-60
2024/01/21 05:56:46;;;;;;;19.90;10.25;;;;;;;;;;5013037;28;20045;-60
2024/01/21 05:59:16;;;;;;;19.10;10.77;;;;;;;;;;5007224;28;20057;-60
2024/01/21 06:01:43;;;;;;;;;;;;;;;;;;5011142;28;20052;-60
2024/01/21 06:04:10;;;;;;;21.25;9.32;;;;;;;;;;5010247;28;19924;-60
2024/01/21 06:06:36;;;;;;;20.35;10.02;;;;;;;;;;5023216;22;20567;-62
2024/01/21 06:09:02;;;;;;;18.95;9.63;;;;;;;;;;5004735;28;20054;-60
2024/01/21 06:11:29;;;;;;;17.90;9.77;;;;;;;;;;5004511;28;20054;-61
2024/01/21 06:13:55;;;;;;;22.98;10.30;;;;;;;;;;5013907;28;20049;-59
2024/01/21 06:16:21;;;;;;;18.35;10.38;;;;;;;;;;5013037;28;20053;-59
2024/01/21 06:18:47;;;;;;;21.73;11.07;;;;;;;;;;5013647;28;20068;-60
2024/01/21 06:21:16;;;;;;;19.58;10.20;;;;;;;;;;5011208;28;20045;-60
2024/01/21 06:23:43;;;;;;;20.05;10.93;;;;;;;;;;5012817;28;20564;-60
2024/01/21 06:26:19;;;;;;;20.88;10.55;;;;;;;;;;5009920;28;20034;-59
2024/01/21 06:28:46;;;;;;;20.70;10.23;;;;;;;;;;5014622;28;20038;-60
2024/01/21 06:31:13;;;;;;;24.17;10.85;;;;;;;;;;5008744;28;20045;-60
2024/01/21 06:33:40;;;;;;;20.70;10.43;;;;;;;;;;5013409;28;20052;-60
2024/01/21 06:36:07;;;;;;;19.10;10.07;;;;;;;;;;5006452;28;20049;-60
2024/01/21 06:38:33;;;;;;;22.83;10.80;;;;;;;;;;5008190;28;20046;-60
2024/01/21 06:40:59;;;;;;;24.00;11.60;;;;;;;;;;5014383;28;20029;-60
2024/01/21 06:43:25;;;;;;;29.90;14.75;;;;;;;;;;5009843;28;20069;-60
2024/01/21 06:45:52;;;;;;;37.80;17.65;;;;;;;;;;5009569;28;20050;-60
2024/01/21 06:48:18;;;;;;;40.38;20.48;;;;;;;;;;5008724;28;20552;-60
2024/01/21 06:50:48;;;;;;;39.95;19.25;;;;;;;;;;5009257;28;20053;-60
2024/01/21 06:53:15;;;;;;;37.20;18.42;;;;;;;;;;5009262;28;20058;-59
2024/01/21 06:55:43;;;;;;;43.08;19.55;;;;;;;;;;4993240;28;20057;-59
2024/01/21 06:58:09;;;;;;;49.00;20.90;;;;;;;;;;5007191;28;20069;-59
2024/01/21 07:00:36;;;;;;;64.82;25.27;;;;;;;;;;5015742;28;20041;-59
2024/01/21 07:03:02;;;;;;;63.53;25.92;;;;;;;;;;5015268;28;20046;-59
2024/01/21 07:05:28;;;;;;;65.20;27.60;;;;;;;;;;5012338;28;20053;-59
2024/01/21 07:07:54;;;;;;;57.08;24.35;;;;;;;;;;5009609;28;20038;-59
2024/01/21 07:10:21;;;;;;;38.72;18.67;;;;;;;;;;5011457;28;20054;-59
2024/01/21 07:12:47;;;;;;;35.13;17.10;;;;;;;;;;5011237;28;20025;-59
2024/01/21 07:15:13;;;;;;;31.95;17.15;;;;;;;;;;5036840;28;20048;-60
2024/01/21 07:17:39;;;;;;;32.55;16.65;;;;;;;;;;5019221;28;20037;-59
2024/01/21 07:20:06;;;;;;;34.25;16.55;;;;;;;;;;5015134;28;20037;-60
2024/01/21 07:22:32;;;;;;;33.97;16.63;;;;;;;;;;5013869;28;20038;-60
2024/01/21 07:24:58;;;;;;;33.63;17.80;;;;;;;;;;5016668;28;20050;-60
2024/01/21 07:27:24;;;;;;;36.25;17.48;;;;;;;;;;5016662;28;20089;-59
2024/01/21 07:29:51;;;;;;;37.53;18.30;;;;;;;;;;5018992;28;20033;-59
2024/01/21 07:32:17;;;;;;;43.95;20.77;;;;;;;;;;5015147;28;20050;-59
2024/01/21 07:34:43;;;;;;;46.90;21.60;;;;;;;;;;5019834;28;20045;-59
2024/01/21 07:37:09;;;;;;;47.92;22.20;;;;;;;;;;5019033;28;20414;-59
2024/01/21 07:39:35;;;;;;;45.05;19.73;;;;;;;;;;5009898;28;20040;-60
2024/01/21 07:42:01;;;;;;;49.00;20.60;;;;;;;;;;5019177;28;20059;-59
2024/01/21 07:44:27;;;;;;;38.55;19.35;;;;;;;;;;5011923;28;20040;-59
2024/01/21 07:46:54;;;;;;;42.38;18.92;;;;;;;;;;5014502;28;20434;-60
2024/01/21 07:49:20;;;;;;;36.33;18.33;;;;;;;;;;5006753;28;20044;-60
2024/01/21 07:51:46;;;;;;;39.20;16.92;;;;;;;;;;5004988;28;20041;-59
2024/01/21 07:54:13;;;;;;;36.50;16.40;;;;;;;;;;5004396;28;20057;-60
2024/01/21 07:56:39;;;;;;;40.70;18.52;;;;;;;;;;5002453;28;20041;-60
2024/01/21 07:59:05;;;;;;;38.58;19.40;;;;;;;;;;5007070;28;20054;-61
2024/01/21 08:01:31;;;;;;;43.88;20.35;;;;;;;;;;5005250;28;20026;-59
2024/01/21 08:03:57;;;;;;;41.40;19.70;;;;;;;;;;5009931;28;20045;-60
2024/01/21 08:06:23;;;;;;;40.17;19.58;;;;;;;;;;5015155;28;20524;-60
2024/01/21 08:08:50;;;;;;;34.08;17.10;;;;;;;;;;5008026;28;20053;-60
2024/01/21 08:11:16;;;;;;;38.83;18.45;;;;;;;;;;5007595;28;20057;-60
2024/01/21 08:13:43;;;;;;;39.33;19.88;;;;;;;;;;5016232;28;20604;-60
2024/01/21 08:16:09;;;;;;;39.28;18.98;;;;;;;;;;5018618;28;20044;-60
2024/01/21 08:18:36;;;;;;;61.65;24.33;;;;;;;;;;5015098;28;20053;-60
2024/01/21 08:21:02;;;;;;;26.13;13.38;;;;;;;;;;5016330;28;20049;-60
2024/01/21 08:23:28;;;;;;;24.17;12.23;;;;;;;;;;5015808;28;20034;-60
2024/01/21 08:25:54;;;;;;;14.85;8.80;;;;;;;;;;5017448;28;20042;-61
2024/01/21 08:28:21;;;;;;;16.50;8.40;;;;;;;;;;5018276;28;20034;-60
2024/01/21 08:30:47;;;;;;;21.67;9.00;;;;;;;;;;5012724;28;20041;-60
2024/01/21 08:33:13;;;;;;;18.15;8.40;;;;;;;;;;5019503;28;20060;-59
2024/01/21 08:35:40;;;;;;;15.48;8.00;;;;;;;;;;5008734;28;20036;-59
2024/01/21 08:38:07;;;;;;;27.98;12.75;;;;;;;;;;5015643;28;20050;-59
2024/01/21 08:40:33;;;;;;;53.42;25.30;;;;;;;;;;5020513;28;20048;-59
2024/01/21 08:42:59;;;;;;;68.88;30.08;;;;;;;;;;5015734;28;20041;-60
2024/01/21 08:45:25;;;;;;;56.47;26.42;;;;;;;;;;5011448;28;20052;-60
2024/01/21 08:47:53;;;;;;;46.72;23.13;;;;;;;;;;5012936;28;20049;-60
2024/01/21 08:50:19;;;;;;;45.47;22.58;;;;;;;;;;5010716;28;20751;-58
2024/01/21 08:52:45;;;;;;;39.35;18.23;;;;;;;;;;5011521;28;20382;-59
2024/01/21 08:55:11;;;;;;;34.35;17.23;;;;;;;;;;5015423;28;20048;-59
2024/01/21 08:57:38;;;;;;;34.78;17.30;;;;;;;;;;5011989;28;20039;-60
2024/01/21 09:00:05;;;;;;;16.85;8.88;;;;;;;;;;5012366;28;20401;-58
2024/01/21 09:02:31;;;;;;;22.52;12.48;;;;;;;;;;5011065;28;20044;-58
2024/01/21 09:04:58;;;;;;;34.65;17.58;;;;;;;;;;5011375;28;20049;-59
2024/01/21 09:07:24;;;;;;;34.15;17.88;;;;;;;;;;5010422;28;20081;-59
2024/01/21 09:09:50;;;;;;;32.85;15.98;;;;;;;;;;5012502;28;20037;-59
2024/01/21 09:12:17;;;;;;;35.25;16.88;;;;;;;;;;5013145;28;20052;-59
2024/01/21 09:14:43;;;;;;;34.47;17.52;;;;;;;;;;5014141;28;20493;-59
2024/01/21 09:17:09;;;;;;;30.92;16.00;;;;;;;;;;5010614;28;20073;-59
2024/01/21 09:19:35;;;;;;;30.15;15.48;;;;;;;;;;5010422;28;20037;-60
2024/01/21 09:22:02;;;;;;;29.05;15.43;;;;;;;;;;5012689;28;20049;-60
2024/01/21 09:24:28;;;;;;;24.88;14.63;;;;;;;;;;5009344;28;20037;-59
2024/01/21 09:26:54;;;;;;;27.42;14.20;;;;;;;;;;5018398;28;20068;-60
2024/01/21 09:29:20;;;;;;;27.88;15.50;;;;;;;;;;5015355;28;20421;-59
2024/01/21 09:31:57;;;;;;;31.23;16.88;;;;;;;;;;5016880;28;20049;-60
2024/01/21 09:34:24;;;;;;;30.15;15.85;;;;;;;;;;5009128;28;20054;-60
2024/01/21 09:36:51;;;;;;;28.30;15.55;;;;;;;;;;5006861;28;20044;-60
2024/01/21 09:39:18;;;;;;;30.73;15.90;;;;;;;;;;5011128;28;20642;-60
2024/01/21 09:41:50;;;;;;;34.10;17.30;;;;;;;;;;5020411;28;20025;-59
2024/01/21 09:44:25;;;;;;;23.58;12.93;;;;;;;;;;5010697;28;20037;-60
2024/01/21 09:46:59;;;;;;;28.02;15.15;;;;;;;;;;5006776;28;20046;-60
2024/01/21 09:49:27;;;;;;;16.95;8.25;;;;;;;;;;5012204;28;20052;-59
2024/01/21 09:51:54;;;;;;;14.70;7.85;;;;;;;;;;5017293;28;20049;-60
2024/01/21 09:54:22;;;;;;;16.30;9.13;;;;;;;;;;5011541;28;20049;-59
2024/01/21 09:56:48;;;;;;;39.10;21.48;;;;;;;;;;5010164;28;20041;-60
2024/01/21 09:59:16;;;;;;;49.53;25.90;;;;;;;;;;5009633;28;20508;-60
2024/01/21 10:01:43;;;;;;;57.17;28.38;;;;;;;;;;5012896;28;20379;-59
2024/01/21 10:04:16;;;;;;;51.63;26.67;;;;;;;;;;5010641;28;20054;-59
2024/01/21 10:06:43;;;;;;;54.50;29.33;;;;;;;;;;5012882;28;20037;-60
2024/01/21 10:09:29;;;;;;;51.97;26.45;;;;;;;;;;5011234;28;20042;-60
2024/01/21 10:11:57;;;;;;;44.72;23.15;;;;;;;;;;5011911;28;20113;-60
2024/01/21 10:14:31;;;;;;;42.42;21.73;;;;;;;;;;5012809;28;20050;-60
2024/01/21 10:16:59;;;;;;;43.15;21.67;;;;;;;;;;5013308;28;20440;-60
2024/01/21 10:19:26;;;;;;;47.88;24.10;;;;;;;;;;5014409;28;20042;-60
2024/01/21 10:22:14;;;;;;;49.17;26.00;;;;;;;;;;5009520;28;20515;-60
2024/01/21 10:24:42;;;;;;;47.35;24.88;;;;;;;;;;5018504;28;20030;-60
2024/01/21 10:27:09;;;;;;;42.65;23.42;;;;;;;;;;5020599;28;20033;-60
2024/01/21 10:29:43;;;;;;;47.15;25.25;;;;;;;;;;5008913;28;20026;-60
2024/01/21 10:32:11;;;;;;;49.05;25.25;;;;;;;;;;5015104;28;20046;-60
2024/01/21 10:34:50;;;;;;;44.80;24.00;;;;;;;;;;5008193;28;20042;-59
2024/01/21 10:37:16;;;;;;;42.47;22.83;;;;;;;;;;5016974;28;20038;-60
2024/01/21 10:39:47;;;;;;;43.70;21.88;;;;;;;;;;5015763;28;20497;-60
2024/01/21 10:42:16;;;;;;;45.97;20.88;;;;;;;;;;5013426;28;20037;-60
2024/01/21 10:44:43;;;;;;;40.08;20.77;;;;;;;;;;5011124;28;20052;-60
2024/01/21 10:47:11;;;;;;;38.03;19.00;;;;;;;;;;5016304;28;20049;-60
2024/01/21 10:49:39;;;;;;;35.42;16.67;;;;;;;;;;5014286;28;20030;-60
2024/01/21 10:52:08;;;;;;;40.88;17.30;;;;;;;;;;5014896;28;20060;-60
2024/01/21 10:54:37;;;;;;;35.80;15.68;;;;;;;;;;5011866;28;20041;-59
2024/01/21 10:57:04;;;;;;;33.63;15.52;;;;;;;;;;5012304;28;20053;-61
2024/01/21 10:59:31;;;;;;;29.92;15.63;;;;;;;;;;5017953;28;20049;-61
2024/01/21 11:01:57;;;;;;;51.53;20.80;;;;;;;;;;5011475;28;20046;-60
2024/01/21 11:04:23;;;;;;;53.47;21.10;;;;;;;;;;5016202;28;20053;-61
2024/01/21 11:06:52;;;;;;;48.53;20.08;;;;;;;;;;5014423;28;20052;-60
2024/01/21 11:09:25;;;;;;;35.27;17.23;;;;;;;;;;5014458;28;20050;-61
2024/01/21 11:11:52;;;;;;;34.35;18.48;;;;;;;;;;5016952;28;20296;-60
2024/01/21 11:14:35;;;;;;;39.35;21.38;;;;;;;;;;5017486;28;20053;-61
2024/01/21 11:17:11;;;;;;;41.60;19.92;;;;;;;;;;5016710;28;20057;-60
2024/01/21 11:19:42;;;;;;;48.00;21.85;;;;;;;;;;5016371;28;20036;-60
2024/01/21 11:22:12;;;;;;;36.85;20.00;;;;;;;;;;5016898;28;20485;-60
2024/01/21 11:24:39;;;;;;;39.72;18.48;;;;;;;;;;5017729;28;20053;-60
2024/01/21 11:27:07;;;;;;;44.08;21.83;;;;;;;;;;5015544;28;20057;-61
2024/01/21 11:29:34;;;;;;;43.55;21.13;;;;;;;;;;5007762;28;20045;-61
2024/01/21 11:32:05;;;;;;;34.05;18.52;;;;;;;;;;5020830;28;20553;-61
2024/01/21 11:34:39;;;;;;;31.17;15.95;;;;;;;;;;5020837;28;20038;-61
2024/01/21 11:37:13;;;;;;;18.55;8.73;;;;;;;;;;5023665;28;20034;-61
2024/01/21 11:39:41;;;;;;;14.02;6.40;;;;;;;;;;5018249;28;20433;-61
2024/01/21 11:42:08;;;;;;;9.98;5.03;;;;;;;;;;5009513;28;20052;-61
2024/01/21 11:44:37;;;;;;;9.05;5.00;;;;;;;;;;5013765;28;20037;-62
2024/01/21 11:47:05;;;;;;;10.85;6.13;;;;;;;;;;5015564;28;20421;-62
2024/01/21 11:49:33;;;;;;;17.30;9.10;;;;;;;;;;5008330;28;20048;-62
2024/01/21 11:52:05;;;;;;;35.08;17.90;;;;;;;;;;5016041;28;20064;-62
2024/01/21 11:54:36;;;;;;;33.20;17.55;;;;;;;;;;5008754;28;20405;-62
2024/01/21 11:57:03;;;;;;;31.35;17.60;;;;;;;;;;5013323;28;20061;-63
2024/01/21 11:59:31;;;;;;;29.75;17.20;;;;;;;;;;5013520;28;20033;-63
2024/01/21 12:01:57;;;;;;;32.25;18.10;;;;;;;;;;5012953;28;20049;-63
2024/01/21 12:04:25;;;;;;;34.75;19.70;;;;;;;;;;5011833;28;20041;-63
2024/01/21 12:06:52;;;;;;;38.97;19.10;;;;;;;;;;5009378;28;20064;-62
2024/01/21 12:09:19;;;;;;;32.65;18.25;;;;;;;;;;5007742;28;20050;-62
2024/01/21 12:11:48;;;;;;;32.40;18.35;;;;;;;;;;5010647;28;20413;-62
2024/01/21 12:14:14;;;;;;;34.17;17.98;;;;;;;;;;5012594;28;20038;-62
2024/01/21 12:16:43;;;;;;;30.60;17.65;;;;;;;;;;5022940;28;20057;-62
2024/01/21 12:19:11;;;;;;;31.25;17.33;;;;;;;;;;4999130;28;20500;-62
2024/01/21 12:21:37;;;;;;;34.72;18.90;;;;;;;;;;5010047;28;20060;-62
2024/01/21 12:24:03;;;;;;;43.40;19.20;;;;;;;;;;5014923;28;20038;-62
2024/01/21 12:26:30;;;;;;;41.65;19.80;;;;;;;;;;5024693;22;20046;-56
2024/01/21 12:29:00;;;;;;;83.10;28.75;;;;;;;;;;4989149;28;20053;-56
2024/01/21 12:31:34;;;;;;;37.55;18.75;;;;;;;;;;4996607;28;20049;-56
2024/01/21 12:34:07;;;;;;;42.70;19.17;;;;;;;;;;4984474;28;20046;-56
2024/01/21 12:36:36;;;;;;;18.95;11.52;;;;;;;;;;4989055;28;20409;-56
2024/01/21 12:39:04;;;;;;;19.65;11.23;;;;;;;;;;4991264;28;20069;-56
2024/01/21 12:41:30;;;;;;;18.83;9.70;;;;;;;;;;4985075;28;20426;-59
2024/01/21 12:43:57;;;;;;;14.98;8.05;;;;;;;;;;4991174;28;20423;-57
2024/01/21 12:46:23;;;;;;;14.20;7.47;;;;;;;;;;4995584;28;20034;-57
2024/01/21 12:48:50;;;;;;;11.82;7.07;;;;;;;;;;4994638;28;20433;-57
2024/01/21 12:51:17;;;;;;;13.90;6.68;;;;;;;;;;4990454;28;20052;-56
2024/01/21 12:53:45;;;;;;;8.32;4.50;;;;;;;;;;4991180;28;20045;-57
2024/01/21 12:56:11;;;;;;;9.98;4.97;;;;;;;;;;4989353;28;20519;-56
2024/01/21 12:58:37;;;;;;;9.52;4.97;;;;;;;;;;4991263;28;20041;-56
2024/01/21 13:01:04;;;;;;;6.72;4.35;;;;;;;;;;4993226;28;20413;-56
2024/01/21 13:03:31;;;;;;;4.75;3.22;;;;;;;;;;4991537;28;20367;-56
2024/01/21 13:06:00;;;;;;;4.53;2.90;;;;;;;;;;4993890;28;20038;-56
2024/01/21 13:08:31;;;;;;;5.85;2.88;;;;;;;;;;4990327;28;20054;-56
2024/01/21 13:10:58;;;;;;;5.95;3.38;;;;;;;;;;4993173;28;20038;-56
2024/01/21 13:13:24;;;;;;;9.50;3.72;;;;;;;;;;4994444;28;20022;-56
2024/01/21 13:15:50;;;;;;;9.10;3.97;;;;;;;;;;4990798;28;20061;-56
2024/01/21 13:18:17;;;;;;;9.18;3.60;;;;;;;;;;4989735;28;20061;-56
2024/01/21 13:20:44;;;;;;;6.32;3.67;;;;;;;;;;4989603;28;20050;-56
2024/01/21 13:23:10;;;;;;;12.75;4.90;;;;;;;;;;4990538;28;20042;-56
2024/01/21 13:25:36;;;;;;;8.32;3.80;;;;;;;;;;4991683;28;20049;-56
2024/01/21 13:28:06;;;;;;;10.52;3.55;;;;;;;;;;4997098;28;20064;-55
2024/01/21 13:30:46;;;;;;;10.25;3.58;;;;;;;;;;4988353;28;20516;-55
2024/01/21 13:33:22;;;;;;;5.40;3.08;;;;;;;;;;4988632;28;20042;-56
2024/01/21 13:35:49;;;;;;;7.57;3.92;;;;;;;;;;4997440;28;20061;-55
2024/01/21 13:38:24;;;;;;;11.63;4.35;;;;;;;;;;4991705;28;20077;-55
2024/01/21 13:40:51;;;;;;;9.40;4.93;;;;;;;;;;4990684;28;20050;-55
2024/01/21 13:43:17;;;;;;;8.73;5.18;;;;;;;;;;4991205;28;20053;-55
2024/01/21 13:45:44;;;;;;;8.25;5.25;;;;;;;;;;4991241;28;20030;-55
2024/01/21 13:48:13;;;;;;;10.45;5.60;;;;;;;;;;4991436;28;20061;-55
2024/01/21 13:50:40;;;;;;;10.95;5.55;;;;;;;;;;4991665;28;20550;-54
2024/01/21 13:53:06;;;;;;;9.00;4.50;;;;;;;;;;4990556;28;20402;-55
2024/01/21 13:55:33;;;;;;;11.90;4.90;;;;;;;;;;4990026;28;20055;-55
2024/01/21 13:58:02;;;;;;;9.45;4.80;;;;;;;;;;4990979;28;20053;-55
2024/01/21 14:00:28;;;;;;;7.95;4.88;;;;;;;;;;4991060;28;20494;-55
2024/01/21 14:02:56;;;;;;;7.30;4.82;;;;;;;;;;4991106;28;20114;-54
2024/01/21 14:05:23;;;;;;;10.23;5.15;;;;;;;;;;4991459;28;20049;-55
2024/01/21 14:07:50;;;;;;;11.40;5.60;;;;;;;;;;4988188;28;20069;-55
2024/01/21 14:10:17;;;;;;;14.32;7.57;;;;;;;;;;4992145;28;20034;-54
2024/01/21 14:12:44;;;;;;;11.73;6.78;;;;;;;;;;4994381;28;20026;-55
2024/01/21 14:15:10;;;;;;;12.02;6.30;;;;;;;;;;4990474;28;20050;-54
2024/01/21 14:17:37;;;;;;;21.45;8.80;;;;;;;;;;4990137;28;20070;-54
2024/01/21 14:20:04;;;;;;;16.63;6.95;;;;;;;;;;4989321;28;20062;-55
2024/01/21 14:22:31;;;;;;;11.63;5.78;;;;;;;;;;4996555;28;20046;-54
2024/01/21 14:25:27;;;;;;;12.00;7.25;;;;;;;;;;4993451;28;20058;-53